sensor_id;sensor_type;location;lat;lon;timestamp;pressure;altitude;pressure_sealevel;temperature;humidity
63607;BME280;51327;52.466;-1.938;2022-09-20T00:01:19;100846.09;;;11.30;100.00
63607;BME280;51327;52.466;-1.938;2022-09-20T00:03:47;100849.63;;;11.31;100.00
63607;BME280;51327;52.466;-1.938;2022-09-20T00:06:17;100844.22;;;11.32;100.00
63607;BME280;51327;52.466;-1.938;2022-09-20T00:08:46;100842.63;;;11.28;100.00
63607;BME280;51327;52.466;-1.938;2022-09-20T00:11:32;100798.41;;;11.03;100.00
63607;BME280;51327;52.466;-1.938;2022-09-20T00:14:02;100808.03;;;11.07;100.00
63607;BME280;51327;52.466;-1.938;2022-09-20T00:16:31;100843.47;;;11.28;100.00
63607;BME280;51327;52.466;-1.938;2022-09-20T00:18:59;100841.59;;;11.31;100.00
63607;BME280;51327;52.466;-1.938;2022-09-20T00:21:29;100819.44;;;11.11;100.00
63607;BME280;51327;52.466;-1.938;2022-09-20T00:23:58;100817.38;;;11.16;100.00
63607;BME280;51327;52.466;-1.938;2022-09-20T00:26:26;100834.78;;;11.25;100.00
63607;BME280;51327;52.466;-1.938;2022-09-20T00:28:56;100845.91;;;11.33;100.00
63607;BME280;51327;52.466;-1.938;2022-09-20T00:31:22;100848.69;;;11.32;100.00
63607;BME280;51327;52.466;-1.938;2022-09-20T00:33:47;100814.78;;;11.15;100.00
63607;BME280;51327;52.466;-1.938;2022-09-20T00:36:34;100840.75;;;11.30;100.00
63607;BME280;51327;52.466;-1.938;2022-09-20T00:39:02;100826.44;;;11.14;100.00
63607;BME280;51327;52.466;-1.938;2022-09-20T00:41:31;100850.75;;;11.26;100.00
63607;BME280;51327;52.466;-1.938;2022-09-20T00:44:00;100828.47;;;11.08;100.00
63607;BME280;51327;52.466;-1.938;2022-09-20T00:49:04;100840.03;;;11.09;100.00
63607;BME280;51327;52.466;-1.938;2022-09-20T00:51:36;100852.22;;;11.15;100.00
63607;BME280;51327;52.466;-1.938;2022-09-20T00:54:04;100819.97;;;11.00;100.00
63607;BME280;51327;52.466;-1.938;2022-09-20T00:56:37;100851.13;;;11.19;100.00
63607;BME280;51327;52.466;-1.938;2022-09-20T01:01:49;100849.88;;;11.08;100.00
63607;BME280;51327;52.466;-1.938;2022-09-20T01:04:18;100836.31;;;10.94;100.00
63607;BME280;51327;52.466;-1.938;2022-09-20T01:06:49;100845.22;;;10.95;100.00
63607;BME280;51327;52.466;-1.938;2022-09-20T01:09:17;100827.94;;;10.83;100.00
63607;BME280;51327;52.466;-1.938;2022-09-20T01:11:45;100813.34;;;10.73;100.00
63607;BME280;51327;52.466;-1.938;2022-09-20T01:14:15;100865.47;;;10.99;100.00
63607;BME280;51327;52.466;-1.938;2022-09-20T01:16:43;100862.41;;;10.89;100.00
63607;BME280;51327;52.466;-1.938;2022-09-20T01:19:19;100869.31;;;10.93;100.00
63607;BME280;51327;52.466;-1.938;2022-09-20T01:21:52;100857.00;;;10.91;100.00
63607;BME280;51327;52.466;-1.938;2022-09-20T01:24:27;100861.69;;;10.85;100.00
63607;BME280;51327;52.466;-1.938;2022-09-20T01:27:11;100863.00;;;10.77;100.00
63607;BME280;51327;52.466;-1.938;2022-09-20T01:30:08;100864.66;;;10.79;100.00
63607;BME280;51327;52.466;-1.938;2022-09-20T01:35:26;100854.72;;;10.64;100.00
63607;BME280;51327;52.466;-1.938;2022-09-20T01:41:05;100870.44;;;10.70;100.00
63607;BME280;51327;52.466;-1.938;2022-09-20T01:43:44;100848.50;;;10.63;100.00
63607;BME280;51327;52.466;-1.938;2022-09-20T01:46:32;100868.81;;;10.68;100.00
63607;BME280;51327;52.466;-1.938;2022-09-20T01:49:08;100869.78;;;10.65;100.00
63607;BME280;51327;52.466;-1.938;2022-09-20T02:00:32;100854.50;;;10.50;100.00
63607;BME280;51327;52.466;-1.938;2022-09-20T02:03:36;100873.06;;;10.53;100.00
63607;BME280;51327;52.466;-1.938;2022-09-20T02:09:24;100867.13;;;10.46;100.00
63607;BME280;51327;52.466;-1.938;2022-09-20T02:23:47;100841.44;;;10.24;100.00
63607;BME280;51327;52.466;-1.938;2022-09-20T02:31:59;100866.28;;;10.45;100.00
63607;BME280;51327;52.466;-1.938;2022-09-20T02:40:35;100860.28;;;10.40;100.00
63607;BME280;51327;52.466;-1.938;2022-09-20T02:49:06;100861.66;;;10.49;100.00
63607;BME280;51327;52.466;-1.938;2022-09-20T02:51:43;100841.09;;;10.32;100.00
63607;BME280;51327;52.466;-1.938;2022-09-20T02:54:41;100869.75;;;10.48;100.00
63607;BME280;51327;52.466;-1.938;2022-09-20T02:57:24;100867.94;;;10.48;100.00
63607;BME280;51327;52.466;-1.938;2022-09-20T03:00:06;100823.66;;;10.23;100.00
63607;BME280;51327;52.466;-1.938;2022-09-20T03:05:29;100857.25;;;10.48;100.00
63607;BME280;51327;52.466;-1.938;2022-09-20T03:11:00;100859.91;;;10.48;100.00
63607;BME280;51327;52.466;-1.938;2022-09-20T03:16:27;100856.44;;;10.46;100.00
63607;BME280;51327;52.466;-1.938;2022-09-20T03:22:17;100848.50;;;10.44;100.00
63607;BME280;51327;52.466;-1.938;2022-09-20T03:30:44;100793.81;;;10.15;100.00
63607;BME280;51327;52.466;-1.938;2022-09-20T03:36:05;100827.34;;;10.40;100.00
63607;BME280;51327;52.466;-1.938;2022-09-20T03:41:44;100830.19;;;10.37;100.00
63607;BME280;51327;52.466;-1.938;2022-09-20T03:47:25;100768.91;;;9.96;100.00
63607;BME280;51327;52.466;-1.938;2022-09-20T04:06:43;100788.97;;;10.04;100.00
63607;BME280;51327;52.466;-1.938;2022-09-20T04:12:19;100818.53;;;10.19;100.00
63607;BME280;51327;52.466;-1.938;2022-09-20T04:17:51;100822.44;;;10.12;100.00
63607;BME280;51327;52.466;-1.938;2022-09-20T04:22:53;100789.88;;;9.85;100.00
63607;BME280;51327;52.466;-1.938;2022-09-20T04:25:27;100792.56;;;9.85;100.00
63607;BME280;51327;52.466;-1.938;2022-09-20T04:28:04;100796.28;;;9.80;100.00
63607;BME280;51327;52.466;-1.938;2022-09-20T04:30:37;100800.81;;;9.78;100.00
63607;BME280;51327;52.466;-1.938;2022-09-20T04:38:41;100809.13;;;9.72;100.00
63607;BME280;51327;52.466;-1.938;2022-09-20T04:56:00;100799.88;;;9.19;100.00
63607;BME280;51327;52.466;-1.938;2022-09-20T05:15:19;100828.44;;;8.95;100.00
63607;BME280;51327;52.466;-1.938;2022-09-20T05:23:17;100782.03;;;8.59;100.00
63607;BME280;51327;52.466;-1.938;2022-09-20T05:26:13;100824.53;;;8.82;100.00
63607;BME280;51327;52.466;-1.938;2022-09-20T05:29:13;100803.81;;;8.68;100.00
63607;BME280;51327;52.466;-1.938;2022-09-20T05:32:24;100830.69;;;8.84;100.00
63607;BME280;51327;52.466;-1.938;2022-09-20T05:35:33;100827.00;;;8.87;100.00
63607;BME280;51327;52.466;-1.938;2022-09-20T05:38:15;100838.28;;;8.93;100.00
63607;BME280;51327;52.466;-1.938;2022-09-20T05:41:44;100823.72;;;8.80;100.00
63607;BME280;51327;52.466;-1.938;2022-09-20T05:44:07;100854.22;;;8.95;100.00
63607;BME280;51327;52.466;-1.938;2022-09-20T05:47:17;100847.03;;;8.97;100.00
63607;BME280;51327;52.466;-1.938;2022-09-20T05:53:23;100833.41;;;8.83;100.00
63607;BME280;51327;52.466;-1.938;2022-09-20T06:04:20;100842.44;;;8.78;100.00
63607;BME280;51327;52.466;-1.938;2022-09-20T06:09:59;100865.78;;;8.94;100.00
63607;BME280;51327;52.466;-1.938;2022-09-20T06:15:25;100861.28;;;8.96;100.00
63607;BME280;51327;52.466;-1.938;2022-09-20T06:21:32;100869.13;;;8.99;100.00
63607;BME280;51327;52.466;-1.938;2022-09-20T06:23:54;100832.78;;;8.76;100.00
63607;BME280;51327;52.466;-1.938;2022-09-20T06:26:26;100856.25;;;8.88;100.00
63607;BME280;51327;52.466;-1.938;2022-09-20T06:28:59;100834.53;;;8.77;100.00
63607;BME280;51327;52.466;-1.938;2022-09-20T06:31:29;100831.09;;;8.73;100.00
63607;BME280;51327;52.466;-1.938;2022-09-20T06:34:09;100819.72;;;8.70;100.00
63607;BME280;51327;52.466;-1.938;2022-09-20T06:36:38;100877.81;;;9.04;100.00
63607;BME280;51327;52.466;-1.938;2022-09-20T06:42:56;100852.97;;;8.82;100.00
63607;BME280;51327;52.466;-1.938;2022-09-20T06:45:26;100838.06;;;8.77;100.00
63607;BME280;51327;52.466;-1.938;2022-09-20T06:47:52;100864.25;;;8.88;100.00
63607;BME280;51327;52.466;-1.938;2022-09-20T06:50:18;100863.13;;;8.94;100.00
63607;BME280;51327;52.466;-1.938;2022-09-20T06:52:45;100890.81;;;9.12;100.00
63607;BME280;51327;52.466;-1.938;2022-09-20T06:55:33;100883.88;;;9.08;100.00
63607;BME280;51327;52.466;-1.938;2022-09-20T06:58:04;100849.63;;;8.98;100.00
63607;BME280;51327;52.466;-1.938;2022-09-20T07:00:29;100896.13;;;9.34;100.00
63607;BME280;51327;52.466;-1.938;2022-09-20T07:02:55;100871.53;;;9.27;100.00
63607;BME280;51327;52.466;-1.938;2022-09-20T07:05:23;100867.41;;;9.40;100.00
63607;BME280;51327;52.466;-1.938;2022-09-20T07:07:56;100896.41;;;9.69;100.00
63607;BME280;51327;52.466;-1.938;2022-09-20T07:10:26;100852.47;;;9.57;100.00
63607;BME280;51327;52.466;-1.938;2022-09-20T07:13:00;100897.53;;;10.04;100.00
63607;BME280;51327;52.466;-1.938;2022-09-20T07:15:27;100893.94;;;10.24;100.00
63607;BME280;51327;52.466;-1.938;2022-09-20T07:17:54;100859.09;;;10.27;100.00
63607;BME280;51327;52.466;-1.938;2022-09-20T07:20:22;100842.31;;;10.44;100.00
63607;BME280;51327;52.466;-1.938;2022-09-20T07:22:48;100861.25;;;10.76;100.00
63607;BME280;51327;52.466;-1.938;2022-09-20T07:25:14;100879.50;;;11.04;100.00
63607;BME280;51327;52.466;-1.938;2022-09-20T07:27:44;100887.16;;;11.29;100.00
63607;BME280;51327;52.466;-1.938;2022-09-20T07:30:15;100857.56;;;11.32;100.00
63607;BME280;51327;52.466;-1.938;2022-09-20T07:32:41;100862.78;;;11.53;100.00
63607;BME280;51327;52.466;-1.938;2022-09-20T07:35:09;100872.50;;;11.71;100.00
63607;BME280;51327;52.466;-1.938;2022-09-20T07:37:37;100845.06;;;11.67;100.00
63607;BME280;51327;52.466;-1.938;2022-09-20T07:40:09;100888.56;;;12.06;100.00
63607;BME280;51327;52.466;-1.938;2022-09-20T07:42:37;100899.22;;;12.23;100.00
63607;BME280;51327;52.466;-1.938;2022-09-20T07:45:05;100879.44;;;12.26;100.00
63607;BME280;51327;52.466;-1.938;2022-09-20T07:47:34;100866.03;;;12.26;100.00
63607;BME280;51327;52.466;-1.938;2022-09-20T07:50:02;100876.78;;;12.42;100.00
63607;BME280;51327;52.466;-1.938;2022-09-20T07:52:30;100896.84;;;12.66;100.00
63607;BME280;51327;52.466;-1.938;2022-09-20T07:55:00;100862.88;;;12.51;100.00
63607;BME280;51327;52.466;-1.938;2022-09-20T07:57:27;100881.47;;;12.70;100.00
63607;BME280;51327;52.466;-1.938;2022-09-20T08:00:02;100803.06;;;12.35;100.00
63607;BME280;51327;52.466;-1.938;2022-09-20T08:02:30;100825.19;;;12.54;100.00
63607;BME280;51327;52.466;-1.938;2022-09-20T08:04:56;100900.75;;;13.08;100.00
63607;BME280;51327;52.466;-1.938;2022-09-20T08:07:22;100867.69;;;12.92;100.00
63607;BME280;51327;52.466;-1.938;2022-09-20T08:09:50;100896.81;;;13.14;100.00
63607;BME280;51327;52.466;-1.938;2022-09-20T08:12:15;100895.63;;;13.20;100.00
63607;BME280;51327;52.466;-1.938;2022-09-20T08:14:44;100904.19;;;13.26;99.60
63607;BME280;51327;52.466;-1.938;2022-09-20T08:17:12;100838.84;;;12.81;99.27
63607;BME280;51327;52.466;-1.938;2022-09-20T08:19:40;100914.47;;;13.34;99.02
63607;BME280;51327;52.466;-1.938;2022-09-20T08:22:07;100875.03;;;13.20;98.87
63607;BME280;51327;52.466;-1.938;2022-09-20T08:24:35;100896.78;;;13.46;97.97
63607;BME280;51327;52.466;-1.938;2022-09-20T08:27:03;100882.81;;;13.55;95.49
63607;BME280;51327;52.466;-1.938;2022-09-20T08:29:29;100885.72;;;13.66;94.52
63607;BME280;51327;52.466;-1.938;2022-09-20T08:31:54;100882.59;;;13.74;93.74
63607;BME280;51327;52.466;-1.938;2022-09-20T08:34:25;100806.41;;;13.46;92.59
63607;BME280;51327;52.466;-1.938;2022-09-20T08:36:50;100889.44;;;14.08;92.72
63607;BME280;51327;52.466;-1.938;2022-09-20T08:39:21;100804.53;;;13.63;91.07
63607;BME280;51327;52.466;-1.938;2022-09-20T08:42:09;100886.09;;;14.33;91.47
63607;BME280;51327;52.466;-1.938;2022-09-20T08:44:53;100909.97;;;14.52;89.98
63607;BME280;51327;52.466;-1.938;2022-09-20T08:47:26;100901.97;;;14.51;89.55
63607;BME280;51327;52.466;-1.938;2022-09-20T08:49:56;100856.34;;;14.22;88.25
63607;BME280;51327;52.466;-1.938;2022-09-20T08:52:27;100848.84;;;14.27;89.04
63607;BME280;51327;52.466;-1.938;2022-09-20T08:54:56;100817.09;;;14.05;88.83
63607;BME280;51327;52.466;-1.938;2022-09-20T08:57:27;100896.16;;;14.58;88.92
63607;BME280;51327;52.466;-1.938;2022-09-20T08:59:57;100846.53;;;14.35;87.42
63607;BME280;51327;52.466;-1.938;2022-09-20T09:02:30;100897.28;;;14.69;85.42
63607;BME280;51327;52.466;-1.938;2022-09-20T09:04:56;100897.88;;;14.74;86.17
63607;BME280;51327;52.466;-1.938;2022-09-20T09:07:23;100892.38;;;14.75;84.92
63607;BME280;51327;52.466;-1.938;2022-09-20T09:09:53;100862.91;;;14.74;83.83
63607;BME280;51327;52.466;-1.938;2022-09-20T09:12:21;100911.91;;;15.06;83.66
63607;BME280;51327;52.466;-1.938;2022-09-20T09:14:48;100899.63;;;15.02;83.36
63607;BME280;51327;52.466;-1.938;2022-09-20T09:17:25;100855.09;;;14.83;83.20
63607;BME280;51327;52.466;-1.938;2022-09-20T09:20:17;100855.03;;;14.98;83.13
63607;BME280;51327;52.466;-1.938;2022-09-20T09:22:47;100923.63;;;15.32;82.43
63607;BME280;51327;52.466;-1.938;2022-09-20T09:25:25;100914.16;;;15.39;81.00
63607;BME280;51327;52.466;-1.938;2022-09-20T09:27:59;100868.13;;;15.17;80.34
63607;BME280;51327;52.466;-1.938;2022-09-20T09:30:38;100904.69;;;15.34;79.42
63607;BME280;51327;52.466;-1.938;2022-09-20T09:33:30;100918.59;;;15.40;79.07
63607;BME280;51327;52.466;-1.938;2022-09-20T09:36:06;100924.28;;;15.36;78.80
63607;BME280;51327;52.466;-1.938;2022-09-20T09:38:37;100860.72;;;14.93;78.79
63607;BME280;51327;52.466;-1.938;2022-09-20T09:41:05;100879.16;;;14.99;78.84
63607;BME280;51327;52.466;-1.938;2022-09-20T09:43:36;100908.91;;;15.11;78.42
63607;BME280;51327;52.466;-1.938;2022-09-20T09:46:21;100875.03;;;14.94;78.80
63607;BME280;51327;52.466;-1.938;2022-09-20T09:49:04;100879.25;;;14.98;79.83
63607;BME280;51327;52.466;-1.938;2022-09-20T09:51:35;100925.38;;;15.33;79.07
63607;BME280;51327;52.466;-1.938;2022-09-20T09:54:03;100898.84;;;15.27;78.67
63607;BME280;51327;52.466;-1.938;2022-09-20T09:59:36;100924.13;;;15.52;77.87
63607;BME280;51327;52.466;-1.938;2022-09-20T10:05:21;100888.34;;;15.50;78.04
63607;BME280;51327;52.466;-1.938;2022-09-20T10:07:53;100925.28;;;15.75;75.36
63607;BME280;51327;52.466;-1.938;2022-09-20T10:10:33;100895.06;;;15.57;74.75
63607;BME280;51327;52.466;-1.938;2022-09-20T10:18:36;100888.81;;;15.56;74.46
63607;BME280;51327;52.466;-1.938;2022-09-20T10:23:51;100890.78;;;15.67;75.71
63607;BME280;51327;52.466;-1.938;2022-09-20T10:26:50;100918.97;;;16.01;75.03
63607;BME280;51327;52.466;-1.938;2022-09-20T10:32:20;100915.63;;;16.11;73.33
63607;BME280;51327;52.466;-1.938;2022-09-20T10:38:00;100916.25;;;16.27;73.09
63607;BME280;51327;52.466;-1.938;2022-09-20T10:40:37;100868.19;;;16.08;72.90
63607;BME280;51327;52.466;-1.938;2022-09-20T10:52:37;100811.75;;;15.81;69.75
63607;BME280;51327;52.466;-1.938;2022-09-20T11:09:18;100844.56;;;16.24;68.70
63607;BME280;51327;52.466;-1.938;2022-09-20T11:11:52;100805.81;;;16.01;66.97
63607;BME280;51327;52.466;-1.938;2022-09-20T11:14:34;100919.84;;;16.77;66.11
63607;BME280;51327;52.466;-1.938;2022-09-20T11:20:26;100802.88;;;16.04;64.86
63607;BME280;51327;52.466;-1.938;2022-09-20T11:29:52;100879.81;;;16.34;65.49
63607;BME280;51327;52.466;-1.938;2022-09-20T11:32:40;100837.75;;;16.32;65.99
63607;BME280;51327;52.466;-1.938;2022-09-20T11:38:10;100846.63;;;16.58;65.34
63607;BME280;51327;52.466;-1.938;2022-09-20T11:43:35;100818.28;;;16.52;63.87
63607;BME280;51327;52.466;-1.938;2022-09-20T11:46:13;100890.84;;;17.05;63.90
63607;BME280;51327;52.466;-1.938;2022-09-20T11:57:14;100848.34;;;16.72;62.98
63607;BME280;51327;52.466;-1.938;2022-09-20T11:59:51;100793.63;;;16.45;62.42
63607;BME280;51327;52.466;-1.938;2022-09-20T12:05:03;100836.47;;;16.74;60.53
63607;BME280;51327;52.466;-1.938;2022-09-20T12:07:37;100881.25;;;17.01;60.47
63607;BME280;51327;52.466;-1.938;2022-09-20T12:10:21;100842.22;;;16.94;60.48
63607;BME280;51327;52.466;-1.938;2022-09-20T12:12:48;100900.75;;;17.52;59.98
63607;BME280;51327;52.466;-1.938;2022-09-20T12:15:36;100833.66;;;17.24;58.36
63607;BME280;51327;52.466;-1.938;2022-09-20T12:18:28;100899.31;;;17.60;57.57
63607;BME280;51327;52.466;-1.938;2022-09-20T12:21:05;100896.81;;;17.45;58.57
63607;BME280;51327;52.466;-1.938;2022-09-20T12:28:54;100888.25;;;17.87;58.52
63607;BME280;51327;52.466;-1.938;2022-09-20T12:36:44;100841.53;;;17.62;55.77
63607;BME280;51327;52.466;-1.938;2022-09-20T12:39:36;100899.81;;;18.00;54.29
63607;BME280;51327;52.466;-1.938;2022-09-20T13:00:41;100883.13;;;18.06;52.55
63607;BME280;51327;52.466;-1.938;2022-09-20T13:08:44;100875.75;;;18.08;52.51
63607;BME280;51327;52.466;-1.938;2022-09-20T13:16:29;100835.94;;;17.88;52.97
63607;BME280;51327;52.466;-1.938;2022-09-20T13:19:02;100832.13;;;18.02;53.71
63607;BME280;51327;52.466;-1.938;2022-09-20T13:21:35;100835.81;;;18.12;52.65
63607;BME280;51327;52.466;-1.938;2022-09-20T13:24:03;100861.03;;;18.46;52.46
63607;BME280;51327;52.466;-1.938;2022-09-20T13:26:35;100812.34;;;18.24;52.42
63607;BME280;51327;52.466;-1.938;2022-09-20T13:29:07;100852.84;;;18.57;51.65
63607;BME280;51327;52.466;-1.938;2022-09-20T13:31:36;100808.38;;;18.39;52.37
63607;BME280;51327;52.466;-1.938;2022-09-20T13:34:23;100804.72;;;18.40;51.17
63607;BME280;51327;52.466;-1.938;2022-09-20T13:36:55;100799.13;;;18.53;51.58
63607;BME280;51327;52.466;-1.938;2022-09-20T13:39:33;100818.31;;;18.61;51.30
63607;BME280;51327;52.466;-1.938;2022-09-20T13:42:07;100768.09;;;18.36;51.51
63607;BME280;51327;52.466;-1.938;2022-09-20T13:44:39;100809.81;;;18.66;50.30
63607;BME280;51327;52.466;-1.938;2022-09-20T13:47:29;100851.34;;;18.98;49.13
63607;BME280;51327;52.466;-1.938;2022-09-20T13:50:11;100799.66;;;18.58;49.54
63607;BME280;51327;52.466;-1.938;2022-09-20T13:52:48;100831.09;;;18.82;51.00
63607;BME280;51327;52.466;-1.938;2022-09-20T13:55:30;100834.75;;;18.92;52.01
63607;BME280;51327;52.466;-1.938;2022-09-20T13:58:05;100802.31;;;18.69;51.56
63607;BME280;51327;52.466;-1.938;2022-09-20T14:00:44;100855.88;;;18.98;52.04
63607;BME280;51327;52.466;-1.938;2022-09-20T14:03:18;100824.56;;;18.73;52.29
63607;BME280;51327;52.466;-1.938;2022-09-20T14:05:48;100797.78;;;18.58;51.83
63607;BME280;51327;52.466;-1.938;2022-09-20T14:08:24;100837.50;;;18.69;53.09
63607;BME280;51327;52.466;-1.938;2022-09-20T14:11:10;100803.22;;;18.47;51.64
63607;BME280;51327;52.466;-1.938;2022-09-20T14:13:41;100785.06;;;18.27;51.94
63607;BME280;51327;52.466;-1.938;2022-09-20T14:16:10;100789.00;;;18.23;51.46
63607;BME280;51327;52.466;-1.938;2022-09-20T14:18:40;100821.16;;;18.37;52.49
63607;BME280;51327;52.466;-1.938;2022-09-20T14:21:10;100812.84;;;18.29;51.58
63607;BME280;51327;52.466;-1.938;2022-09-20T14:24:05;100862.25;;;18.53;52.50
63607;BME280;51327;52.466;-1.938;2022-09-20T14:26:34;100804.09;;;18.14;51.29
63607;BME280;51327;52.466;-1.938;2022-09-20T14:29:49;100808.03;;;18.10;51.38
63607;BME280;51327;52.466;-1.938;2022-09-20T14:34:59;100800.28;;;18.05;51.64
63607;BME280;51327;52.466;-1.938;2022-09-20T14:37:44;100785.94;;;18.05;51.58
63607;BME280;51327;52.466;-1.938;2022-09-20T14:40:40;100846.03;;;18.42;51.00
63607;BME280;51327;52.466;-1.938;2022-09-20T14:45:53;100829.78;;;18.42;51.01
63607;BME280;51327;52.466;-1.938;2022-09-20T14:53:34;100793.53;;;18.22;50.70
63607;BME280;51327;52.466;-1.938;2022-09-20T14:58:33;100779.03;;;18.12;51.51
63607;BME280;51327;52.466;-1.938;2022-09-20T15:01:23;100803.00;;;18.16;52.15
63607;BME280;51327;52.466;-1.938;2022-09-20T15:03:51;100803.50;;;18.22;52.54
63607;BME280;51327;52.466;-1.938;2022-09-20T15:06:19;100805.22;;;18.23;52.41
63607;BME280;51327;52.466;-1.938;2022-09-20T15:08:44;100794.41;;;18.11;52.99
63607;BME280;51327;52.466;-1.938;2022-09-20T15:11:12;100774.25;;;18.04;53.42
63607;BME280;51327;52.466;-1.938;2022-09-20T15:13:43;100744.66;;;17.91;52.51
63607;BME280;51327;52.466;-1.938;2022-09-20T15:16:12;100825.97;;;18.33;53.12
63607;BME280;51327;52.466;-1.938;2022-09-20T15:18:42;100748.09;;;17.93;52.99
63607;BME280;51327;52.466;-1.938;2022-09-20T15:21:09;100763.94;;;17.98;53.59
63607;BME280;51327;52.466;-1.938;2022-09-20T15:23:38;100778.44;;;18.08;54.05
63607;BME280;51327;52.466;-1.938;2022-09-20T15:26:05;100735.19;;;17.74;54.07
63607;BME280;51327;52.466;-1.938;2022-09-20T15:28:32;100805.84;;;18.15;54.71
63607;BME280;51327;52.466;-1.938;2022-09-20T15:31:00;100817.88;;;18.11;54.92
63607;BME280;51327;52.466;-1.938;2022-09-20T15:33:29;100799.06;;;17.98;53.50
63607;BME280;51327;52.466;-1.938;2022-09-20T15:35:57;100758.75;;;17.72;54.26
63607;BME280;51327;52.466;-1.938;2022-09-20T15:38:23;100820.59;;;18.00;54.40
63607;BME280;51327;52.466;-1.938;2022-09-20T15:40:53;100817.25;;;17.96;55.31
63607;BME280;51327;52.466;-1.938;2022-09-20T15:43:21;100742.78;;;17.47;54.70
63607;BME280;51327;52.466;-1.938;2022-09-20T15:45:51;100810.72;;;17.76;55.10
63607;BME280;51327;52.466;-1.938;2022-09-20T15:48:22;100759.56;;;17.39;55.80
63607;BME280;51327;52.466;-1.938;2022-09-20T15:51:06;100800.72;;;17.54;55.83
63607;BME280;51327;52.466;-1.938;2022-09-20T15:54:14;100759.69;;;17.26;55.66
63607;BME280;51327;52.466;-1.938;2022-09-20T15:56:36;100787.19;;;17.43;55.74
63607;BME280;51327;52.466;-1.938;2022-09-20T15:59:06;100784.72;;;17.28;55.97
63607;BME280;51327;52.466;-1.938;2022-09-20T16:01:37;100744.16;;;17.06;55.73
63607;BME280;51327;52.466;-1.938;2022-09-20T16:04:08;100789.13;;;17.29;56.42
63607;BME280;51327;52.466;-1.938;2022-09-20T16:06:37;100771.66;;;17.11;56.33
63607;BME280;51327;52.466;-1.938;2022-09-20T16:09:05;100802.38;;;17.32;56.71
63607;BME280;51327;52.466;-1.938;2022-09-20T16:11:32;100748.53;;;16.96;56.56
63607;BME280;51327;52.466;-1.938;2022-09-20T16:14:00;100802.59;;;17.18;57.08
63607;BME280;51327;52.466;-1.938;2022-09-20T16:16:27;100751.19;;;16.84;56.50
63607;BME280;51327;52.466;-1.938;2022-09-20T16:18:54;100764.31;;;16.89;56.93
63607;BME280;51327;52.466;-1.938;2022-09-20T16:21:42;100776.50;;;16.95;57.04
63607;BME280;51327;52.466;-1.938;2022-09-20T16:24:13;100745.09;;;16.69;57.52
63607;BME280;51327;52.466;-1.938;2022-09-20T16:27:06;100706.84;;;16.40;57.73
63607;BME280;51327;52.466;-1.938;2022-09-20T16:29:35;100743.84;;;16.62;57.38
63607;BME280;51327;52.466;-1.938;2022-09-20T16:32:03;100815.44;;;17.03;57.96
63607;BME280;51327;52.466;-1.938;2022-09-20T16:34:34;100776.13;;;16.75;58.30
63607;BME280;51327;52.466;-1.938;2022-09-20T16:37:09;100803.53;;;16.82;58.18
63607;BME280;51327;52.466;-1.938;2022-09-20T16:39:38;100754.31;;;16.54;57.83
63607;BME280;51327;52.466;-1.938;2022-09-20T16:42:07;100772.34;;;16.54;58.49
63607;BME280;51327;52.466;-1.938;2022-09-20T16:44:40;100816.69;;;16.74;58.44
63607;BME280;51327;52.466;-1.938;2022-09-20T16:47:10;100816.81;;;16.72;58.83
63607;BME280;51327;52.466;-1.938;2022-09-20T16:49:38;100790.06;;;16.45;59.73
63607;BME280;51327;52.466;-1.938;2022-09-20T16:52:05;100807.50;;;16.52;59.68
63607;BME280;51327;52.466;-1.938;2022-09-20T16:54:31;100791.50;;;16.38;59.50
63607;BME280;51327;52.466;-1.938;2022-09-20T16:57:00;100811.72;;;16.43;60.28
63607;BME280;51327;52.466;-1.938;2022-09-20T16:59:26;100821.44;;;16.46;60.19
63607;BME280;51327;52.466;-1.938;2022-09-20T17:01:51;100797.56;;;16.28;60.49
63607;BME280;51327;52.466;-1.938;2022-09-20T17:04:19;100785.72;;;16.18;60.88
63607;BME280;51327;52.466;-1.938;2022-09-20T17:06:49;100825.88;;;16.34;60.67
63607;BME280;51327;52.466;-1.938;2022-09-20T17:09:15;100749.22;;;15.89;60.87
63607;BME280;51327;52.466;-1.938;2022-09-20T17:11:43;100769.78;;;16.02;61.24
63607;BME280;51327;52.466;-1.938;2022-09-20T17:14:13;100804.69;;;16.17;61.24
63607;BME280;51327;52.466;-1.938;2022-09-20T17:16:43;100794.56;;;16.07;61.38
63607;BME280;51327;52.466;-1.938;2022-09-20T17:19:15;100818.38;;;16.26;61.56
63607;BME280;51327;52.466;-1.938;2022-09-20T17:21:45;100819.47;;;16.24;62.06
63607;BME280;51327;52.466;-1.938;2022-09-20T17:24:20;100815.34;;;16.18;62.09
63607;BME280;51327;52.466;-1.938;2022-09-20T17:26:49;100806.31;;;16.06;62.33
63607;BME280;51327;52.466;-1.938;2022-09-20T17:29:16;100754.63;;;15.76;62.78
63607;BME280;51327;52.466;-1.938;2022-09-20T17:31:44;100825.50;;;16.15;62.63
63607;BME280;51327;52.466;-1.938;2022-09-20T17:34:13;100820.13;;;16.02;62.82
63607;BME280;51327;52.466;-1.938;2022-09-20T17:36:44;100814.53;;;15.92;63.05
63607;BME280;51327;52.466;-1.938;2022-09-20T17:39:11;100774.00;;;15.68;63.27
63607;BME280;51327;52.466;-1.938;2022-09-20T17:41:44;100806.34;;;15.81;63.33
63607;BME280;51327;52.466;-1.938;2022-09-20T17:44:10;100780.34;;;15.54;63.49
63607;BME280;51327;52.466;-1.938;2022-09-20T17:46:38;100816.03;;;15.71;63.54
63607;BME280;51327;52.466;-1.938;2022-09-20T17:49:08;100819.34;;;15.61;64.04
63607;BME280;51327;52.466;-1.938;2022-09-20T17:51:48;100738.22;;;15.02;64.00
63607;BME280;51327;52.466;-1.938;2022-09-20T17:54:17;100771.25;;;15.17;64.33
63607;BME280;51327;52.466;-1.938;2022-09-20T17:56:47;100824.47;;;15.39;64.70
63607;BME280;51327;52.466;-1.938;2022-09-20T17:59:17;100764.25;;;15.01;65.00
63607;BME280;51327;52.466;-1.938;2022-09-20T18:01:45;100725.22;;;14.69;65.01
63607;BME280;51327;52.466;-1.938;2022-09-20T18:04:11;100741.03;;;14.73;65.50
63607;BME280;51327;52.466;-1.938;2022-09-20T18:06:44;100840.63;;;15.26;65.53